Time;durP1;ratioP1;P1;durP2;ratioP2;P2;SDS_P1;SDS_P2;PMS_P1;PMS_P2;Temp;Humidity;BMP_temperature;BMP_pressure;BME280_temperature;BME280_humidity;BME280_pressure;Samples;Min_cycle;Max_cycle;Signal;HPM_P1;HPM_P2
2022/01/18 00:01:37;;;;;;;5.13;2.17;;;6.80;75.60;;;;;;5099709;28;20218;-72
2022/01/18 00:04:08;;;;;;;4.20;1.83;;;6.80;75.50;;;;;;5103270;28;20201;-72
2022/01/18 00:06:39;;;;;;;4.57;2.30;;;6.80;75.50;;;;;;5104277;28;20272;-72
2022/01/18 00:09:07;;;;;;;4.97;2.50;;;6.80;75.40;;;;;;5103539;28;20192;-73
2022/01/18 00:11:42;;;;;;;4.20;2.43;;;6.80;75.30;;;;;;5102663;28;20259;-73
2022/01/18 00:14:23;;;;;;;4.57;2.53;;;6.80;75.20;;;;;;5103611;28;20196;-73
2022/01/18 00:17:03;;;;;;;4.17;2.20;;;6.70;75.20;;;;;;5095990;28;20185;-73
2022/01/18 00:19:39;;;;;;;4.37;2.27;;;6.70;75.00;;;;;;5104679;28;20193;-73
2022/01/18 00:22:12;;;;;;;8.23;2.50;;;6.70;74.70;;;;;;5102592;28;20204;-72
2022/01/18 00:24:41;;;;;;;8.70;2.33;;;6.70;74.50;;;;;;5102688;28;20724;-72
2022/01/18 00:27:13;;;;;;;4.17;2.00;;;6.80;73.90;;;;;;5096154;28;20202;-73
2022/01/18 00:29:51;;;;;;;3.43;2.00;;;6.70;72.70;;;;;;5103457;28;20546;-73
2022/01/18 00:32:28;;;;;;;4.90;2.10;;;6.70;72.30;;;;;;5104029;28;20192;-72
2022/01/18 00:34:58;;;;;;;3.80;1.80;;;6.70;71.60;;;;;;5101391;28;20682;-72
2022/01/18 00:37:34;;;;;;;3.73;1.50;;;6.70;70.70;;;;;;5100617;28;20187;-72
2022/01/18 00:40:03;;;;;;;5.73;1.97;;;6.60;69.20;;;;;;5101010;28;20180;-72
2022/01/18 00:42:31;;;;;;;7.77;1.83;;;6.60;68.30;;;;;;5101067;28;20217;-73
2022/01/18 00:44:59;;;;;;;5.77;1.77;;;6.60;68.20;;;;;;5100868;28;20265;-73
2022/01/18 00:47:28;;;;;;;2.67;1.70;;;6.60;66.10;;;;;;5101009;28;20466;-72
2022/01/18 00:50:01;;;;;;;4.03;1.53;;;6.50;65.20;;;;;;5102729;28;20453;-73
2022/01/18 00:52:31;;;;;;;2.57;1.27;;;6.50;64.00;;;;;;5100497;28;20188;-71
2022/01/18 00:55:01;;;;;;;3.20;1.37;;;6.50;63.30;;;;;;5101285;28;20185;-72
2022/01/18 00:57:30;;;;;;;2.60;1.40;;;6.40;62.30;;;;;;5102447;28;20190;-72
2022/01/18 00:59:58;;;;;;;3.30;1.60;;;6.40;62.60;;;;;;5101593;28;20525;-72
2022/01/18 01:02:27;;;;;;;3.70;1.40;;;6.40;61.60;;;;;;5101286;28;20218;-72
2022/01/18 01:04:57;;;;;;;2.40;1.20;;;6.40;61.80;;;;;;5103093;28;20202;-73
2022/01/18 01:07:26;;;;;;;2.70;1.40;;;6.30;62.50;;;;;;5100219;28;20188;-72
2022/01/18 01:09:54;;;;;;;2.23;1.63;;;6.30;62.10;;;;;;5103019;28;20204;-72
2022/01/18 01:12:26;;;;;;;3.10;1.40;;;6.30;62.40;;;;;;5102496;28;20201;-72
2022/01/18 01:15:01;;;;;;;1.37;1.13;;;6.30;61.90;;;;;;5099907;28;20197;-73
2022/01/18 01:17:39;;;;;;;3.30;1.77;;;6.30;62.50;;;;;;5101700;28;20451;-72
2022/01/18 01:34:24;;;;;;;3.10;1.60;;;6.30;62.30;;;;;;5101085;28;20861;-72
2022/01/18 01:42:54;;;;;;;5.33;1.43;;;6.20;63.30;;;;;;5099422;28;20227;-72
2022/01/18 01:45:24;;;;;;;3.90;1.70;;;6.20;63.30;;;;;;5100443;28;20193;-72
2022/01/18 01:47:53;;;;;;;3.43;1.40;;;6.20;63.30;;;;;;5100808;28;20192;-73
2022/01/18 01:50:23;;;;;;;4.23;1.23;;;6.20;62.80;;;;;;5101265;28;20212;-72
2022/01/18 01:52:55;;;;;;;2.10;1.10;;;6.20;63.00;;;;;;5102622;28;20811;-73
2022/01/18 01:55:25;;;;;;;1.47;1.00;;;6.10;62.50;;;;;;5102701;28;20185;-73
2022/01/18 01:57:53;;;;;;;1.80;1.00;;;6.10;62.40;;;;;;5102452;28;20543;-73
2022/01/18 02:00:23;;;;;;;1.57;1.10;;;6.10;62.80;;;;;;5100172;28;20254;-72
2022/01/18 02:02:52;;;;;;;3.13;1.40;;;6.10;62.60;;;;;;5101261;28;20261;-73
2022/01/18 02:05:22;;;;;;;3.10;1.30;;;6.10;62.40;;;;;;5102718;28;20198;-73
2022/01/18 02:07:51;;;;;;;2.13;0.90;;;6.10;62.30;;;;;;5101063;28;20208;-73
2022/01/18 02:10:21;;;;;;;3.03;1.07;;;6.10;62.10;;;;;;5099477;28;20193;-73
2022/01/18 02:12:49;;;;;;;2.43;1.07;;;6.10;62.40;;;;;;5093241;28;20197;-73
2022/01/18 02:15:22;;;;;;;2.67;1.00;;;6.10;62.50;;;;;;5100586;28;20185;-75
2022/01/18 02:23:26;;;;;;;2.13;1.30;;;6.00;61.60;;;;;;5098363;28;20217;-72
2022/01/18 02:25:55;;;;;;;2.30;1.17;;;6.00;62.20;;;;;;5098909;28;20189;-72
2022/01/18 02:28:25;;;;;;;2.63;1.30;;;6.00;61.10;;;;;;5097598;28;20896;-73
2022/01/18 02:30:54;;;;;;;4.63;1.53;;;5.90;60.50;;;;;;5102010;28;20185;-72
2022/01/18 02:33:23;;;;;;;4.37;1.10;;;5.80;60.50;;;;;;5096874;28;20220;-73
2022/01/18 02:35:54;;;;;;;2.10;1.20;;;5.90;61.10;;;;;;5102467;28;20618;-72
2022/01/18 02:38:23;;;;;;;2.20;1.23;;;5.80;60.80;;;;;;5102236;28;20196;-73
2022/01/18 02:40:51;;;;;;;2.60;0.90;;;5.70;60.00;;;;;;5101346;28;20589;-73
2022/01/18 02:46:05;;;;;;;1.43;0.90;;;5.70;60.00;;;;;;5095345;28;20193;-72
2022/01/18 02:48:33;;;;;;;2.43;1.17;;;5.60;59.70;;;;;;5101511;28;20281;-72
2022/01/18 02:51:04;;;;;;;2.40;1.00;;;5.50;59.80;;;;;;5102801;28;20189;-73
2022/01/18 02:53:32;;;;;;;5.57;1.10;;;5.50;60.30;;;;;;5099593;28;20718;-72
2022/01/18 02:56:00;;;;;;;2.77;0.90;;;5.50;60.50;;;;;;5101098;28;20193;-73
2022/01/18 02:58:32;;;;;;;1.97;1.00;;;5.50;60.80;;;;;;5102858;28;20200;-73
2022/01/18 03:03:46;;;;;;;2.67;1.20;;;5.50;59.80;;;;;;5094733;28;20215;-73
2022/01/18 03:06:16;;;;;;;5.10;1.03;;;5.50;59.90;;;;;;5103013;28;20219;-73
2022/01/18 03:08:44;;;;;;;2.20;0.70;;;5.50;59.90;;;;;;5100553;28;20192;-72
2022/01/18 03:11:16;;;;;;;4.40;1.17;;;5.50;60.60;;;;;;5099950;28;20201;-73
2022/01/18 03:13:45;;;;;;;3.17;1.17;;;5.50;60.30;;;;;;5099436;28;20592;-73
2022/01/18 03:16:14;;;;;;;2.00;1.10;;;5.50;59.90;;;;;;5102989;28;20204;-73
2022/01/18 03:18:42;;;;;;;4.37;1.30;;;5.50;60.20;;;;;;5100366;28;20275;-73
2022/01/18 03:21:10;;;;;;;3.43;0.90;;;5.40;59.40;;;;;;5102359;28;22108;-73
2022/01/18 03:23:40;;;;;;;2.73;1.00;;;5.40;59.70;;;;;;5104360;28;20223;-73
2022/01/18 03:26:15;;;;;;;1.30;0.80;;;5.40;59.50;;;;;;5103757;28;20673;-72
2022/01/18 03:28:42;;;;;;;1.80;1.00;;;5.40;59.70;;;;;;5099301;28;20191;-73
2022/01/18 03:31:11;;;;;;;2.80;1.07;;;5.40;60.00;;;;;;5103619;28;20200;-74
2022/01/18 03:33:39;;;;;;;2.13;1.00;;;5.30;59.90;;;;;;5101124;28;20185;-73
2022/01/18 03:36:07;;;;;;;3.80;1.30;;;5.30;60.10;;;;;;5103655;28;20220;-73
2022/01/18 03:38:36;;;;;;;3.10;0.87;;;5.30;60.50;;;;;;5106037;28;20276;-73
2022/01/18 03:41:06;;;;;;;5.93;0.97;;;5.30;60.80;;;;;;5105563;28;20607;-73
2022/01/18 03:43:37;;;;;;;7.60;1.47;;;5.30;60.70;;;;;;5099560;28;20265;-73
2022/01/18 03:46:05;;;;;;;7.70;1.30;;;5.30;60.80;;;;;;5102227;28;20197;-73
2022/01/18 03:48:37;;;;;;;3.43;1.20;;;5.30;60.40;;;;;;5103427;28;20193;-73
2022/01/18 03:51:08;;;;;;;5.37;1.30;;;5.30;60.80;;;;;;5103804;28;20196;-73
2022/01/18 03:53:38;;;;;;;3.25;1.08;;;5.20;60.80;;;;;;5102221;28;21288;-73
2022/01/18 03:56:07;;;;;;;2.80;1.00;;;5.20;61.20;;;;;;5103039;28;20200;-73
2022/01/18 03:58:36;;;;;;;4.30;1.13;;;5.20;61.40;;;;;;5104120;28;20192;-73
2022/01/18 04:01:05;;;;;;;3.90;1.40;;;5.20;61.60;;;;;;5104299;28;20189;-74
2022/01/18 04:03:33;;;;;;;1.90;1.10;;;5.20;61.70;;;;;;5104078;28;20749;-74
2022/01/18 04:06:02;;;;;;;4.27;1.30;;;5.20;61.70;;;;;;5104421;28;20217;-73
2022/01/18 04:08:30;;;;;;;6.97;1.27;;;5.20;61.70;;;;;;5106044;28;20191;-73
2022/01/18 04:10:58;;;;;;;5.53;1.53;;;5.20;61.70;;;;;;5105035;28;20278;-74
2022/01/18 04:13:28;;;;;;;7.50;1.43;;;5.20;61.90;;;;;;5102990;28;20246;-73
2022/01/18 04:15:56;;;;;;;5.17;1.30;;;5.10;61.90;;;;;;5102744;28;20689;-73
2022/01/18 04:18:31;;;;;;;4.50;1.57;;;5.10;62.20;;;;;;5103843;28;20199;-73
2022/01/18 04:29:17;;;;;;;7.33;1.70;;;5.10;62.70;;;;;;5101424;28;20196;-73
2022/01/18 04:31:46;;;;;;;7.03;1.95;;;5.10;62.90;;;;;;5101373;28;20450;-73
2022/01/18 04:34:14;;;;;;;8.37;1.67;;;5.10;63.00;;;;;;5103097;28;20702;-73
2022/01/18 04:36:45;;;;;;;6.97;1.97;;;5.00;63.10;;;;;;5102511;28;20724;-73
2022/01/18 04:39:14;;;;;;;5.13;2.30;;;5.00;63.20;;;;;;5102787;28;20199;-73
2022/01/18 04:41:44;;;;;;;4.57;1.77;;;5.00;63.20;;;;;;5104661;28;20658;-73
2022/01/18 04:49:42;;;;;;;5.00;1.77;;;5.00;63.30;;;;;;5102907;28;20198;-73
2022/01/18 04:52:12;;;;;;;3.80;1.63;;;5.00;63.30;;;;;;5103360;28;20215;-73
2022/01/18 04:54:43;;;;;;;4.47;1.57;;;5.00;63.30;;;;;;5101884;28;21533;-72
2022/01/18 04:59:57;;;;;;;5.60;1.20;;;5.00;63.10;;;;;;5095971;28;20184;-73
2022/01/18 05:02:26;;;;;;;4.37;1.50;;;5.00;63.00;;;;;;5098946;28;20203;-73
2022/01/18 05:04:55;;;;;;;2.43;1.27;;;5.00;63.00;;;;;;5098491;28;20215;-73
2022/01/18 05:07:23;;;;;;;2.50;1.20;;;5.00;62.90;;;;;;5099899;28;20776;-73
2022/01/18 05:09:53;;;;;;;12.97;1.50;;;5.00;62.70;;;;;;5096044;28;20541;-72
2022/01/18 05:12:35;;;;;;;3.07;1.27;;;5.00;62.90;;;;;;5099772;28;20196;-73
2022/01/18 05:15:12;;;;;;;4.82;1.55;;;5.00;62.80;;;;;;5100980;28;20805;-73
2022/01/18 05:17:58;;;;;;;5.17;1.30;;;5.00;62.90;;;;;;5100860;28;20199;-73
2022/01/18 05:20:44;;;;;;;7.40;1.53;;;5.00;62.80;;;;;;5102674;28;20662;-73
2022/01/18 05:23:11;;;;;;;8.57;1.70;;;5.00;62.90;;;;;;5101158;28;20182;-73
2022/01/18 05:25:40;;;;;;;4.70;1.77;;;5.00;63.00;;;;;;5090565;28;20255;-73
2022/01/18 05:28:08;;;;;;;6.93;1.63;;;5.00;63.10;;;;;;5104354;28;20188;-73
2022/01/18 05:30:36;;;;;;;5.77;1.60;;;5.00;63.10;;;;;;5102554;28;20287;-73
2022/01/18 05:33:10;;;;;;;9.77;2.13;;;5.00;63.00;;;;;;5098953;28;20218;-73
2022/01/18 05:35:38;;;;;;;9.40;2.43;;;5.00;63.20;;;;;;5096126;28;20231;-73
2022/01/18 05:38:07;;;;;;;5.03;2.10;;;5.00;63.20;;;;;;5100616;28;20207;-73
2022/01/18 05:40:36;;;;;;;4.10;1.87;;;5.00;63.20;;;;;;5101862;28;20196;-74
2022/01/18 05:43:04;;;;;;;12.43;2.20;;;5.00;63.20;;;;;;5099892;28;20193;-73
2022/01/18 05:45:33;;;;;;;10.77;2.23;;;5.00;63.20;;;;;;5103214;28;22496;-73
2022/01/18 05:48:02;;;;;;;8.40;2.17;;;5.00;63.10;;;;;;5093965;28;20191;-73
2022/01/18 05:50:32;;;;;;;5.50;2.03;;;5.00;62.70;;;;;;5099805;28;20513;-73
2022/01/18 05:53:00;;;;;;;13.33;2.50;;;5.00;62.60;;;;;;5104309;28;20192;-73
2022/01/18 05:55:29;;;;;;;6.67;2.60;;;4.90;62.50;;;;;;5092799;28;20198;-74
2022/01/18 05:57:57;;;;;;;12.57;4.13;;;4.90;62.50;;;;;;5101740;28;20712;-74
2022/01/18 06:00:27;;;;;;;9.37;3.83;;;4.90;62.30;;;;;;5102326;28;20846;-73
2022/01/18 06:03:10;;;;;;;19.13;4.40;;;4.90;62.30;;;;;;5101302;28;20194;-74
2022/01/18 06:08:27;;;;;;;14.43;4.57;;;4.80;62.40;;;;;;5101845;28;20185;-73
2022/01/18 06:10:55;;;;;;;9.43;3.57;;;4.80;62.60;;;;;;5104094;28;20196;-72
2022/01/18 06:13:23;;;;;;;11.27;3.97;;;4.70;62.70;;;;;;5097952;28;20734;-73
2022/01/18 06:15:52;;;;;;;12.50;4.03;;;4.70;62.90;;;;;;5103853;28;20196;-74
2022/01/18 06:18:20;;;;;;;11.10;4.63;;;4.70;63.00;;;;;;5102760;28;20471;-73
2022/01/18 06:20:50;;;;;;;11.43;4.33;;;4.60;63.30;;;;;;5102558;28;20681;-73
2022/01/18 06:23:19;;;;;;;16.03;4.80;;;4.60;63.50;;;;;;5095854;28;20192;-73
2022/01/18 06:25:48;;;;;;;8.13;4.17;;;4.60;63.60;;;;;;5103356;28;20227;-74
2022/01/18 06:28:16;;;;;;;7.57;3.33;;;4.60;63.80;;;;;;5104855;28;20196;-74
2022/01/18 06:30:45;;;;;;;3.77;2.40;;;4.50;63.80;;;;;;5105554;28;20201;-74
2022/01/18 06:33:13;;;;;;;7.43;3.10;;;4.50;63.90;;;;;;5105052;28;20240;-73
2022/01/18 06:35:42;;;;;;;9.97;3.40;;;4.50;64.00;;;;;;5103264;28;20212;-74
2022/01/18 06:38:12;;;;;;;6.47;2.60;;;4.40;64.20;;;;;;5104422;28;20188;-74
2022/01/18 06:40:41;;;;;;;5.67;2.87;;;4.40;64.50;;;;;;5105435;28;20189;-74
2022/01/18 06:43:09;;;;;;;8.93;2.97;;;4.40;64.70;;;;;;5105482;28;20227;-73
2022/01/18 06:45:38;;;;;;;5.07;2.47;;;4.40;64.90;;;;;;5104405;28;20214;-74
2022/01/18 06:48:07;;;;;;;12.27;3.17;;;4.40;64.90;;;;;;5107085;28;20235;-73
2022/01/18 06:50:36;;;;;;;7.83;3.27;;;4.40;64.80;;;;;;5106516;28;20530;-74
2022/01/18 06:53:05;;;;;;;12.07;3.03;;;4.40;64.60;;;;;;5106460;28;20639;-74
2022/01/18 06:55:36;;;;;;;11.30;3.00;;;4.40;64.60;;;;;;5107203;28;20502;-74
2022/01/18 06:58:04;;;;;;;7.73;3.37;;;4.40;64.80;;;;;;5105374;28;20196;-76
2022/01/18 07:00:32;;;;;;;4.33;2.17;;;4.50;64.70;;;;;;5107167;28;20458;-74
2022/01/18 07:03:01;;;;;;;11.47;3.40;;;4.60;64.70;;;;;;5106964;28;20197;-73
2022/01/18 07:05:32;;;;;;;12.40;2.70;;;4.60;64.80;;;;;;5108603;28;20215;-74
2022/01/18 07:08:00;;;;;;;5.30;2.50;;;4.70;64.50;;;;;;5107882;28;20185;-74
2022/01/18 07:10:31;;;;;;;8.37;2.60;;;4.80;64.70;;;;;;5106848;28;20259;-73
2022/01/18 07:13:01;;;;;;;5.60;2.27;;;4.80;63.40;;;;;;5103611;28;20200;-73
2022/01/18 07:15:30;;;;;;;6.23;2.03;;;4.80;62.90;;;;;;5102489;28;20223;-73
2022/01/18 07:17:59;;;;;;;6.73;2.30;;;4.90;62.80;;;;;;5105392;28;20205;-74
2022/01/18 07:20:28;;;;;;;15.07;3.07;;;5.00;62.00;;;;;;5107892;28;20283;-73
2022/01/18 07:22:56;;;;;;;7.60;2.63;;;5.00;62.00;;;;;;5106682;28;20623;-73
2022/01/18 07:25:26;;;;;;;9.53;3.50;;;5.10;62.20;;;;;;5104944;28;20305;-74
2022/01/18 07:27:54;;;;;;;6.00;2.60;;;5.20;61.40;;;;;;5097322;28;20814;-73
2022/01/18 07:30:24;;;;;;;12.57;2.93;;;5.30;61.60;;;;;;5098511;28;20219;-73
2022/01/18 07:32:52;;;;;;;8.67;2.37;;;5.30;59.00;;;;;;5099486;28;20683;-73
2022/01/18 07:35:21;;;;;;;12.60;2.90;;;5.40;58.90;;;;;;5103520;28;20221;-74
2022/01/18 07:37:49;;;;;;;7.50;2.70;;;5.50;59.60;;;;;;5103288;28;20215;-73
2022/01/18 07:40:18;;;;;;;5.80;2.57;;;5.60;58.80;;;;;;5105388;28;20185;-73
2022/01/18 07:42:46;;;;;;;7.07;2.17;;;5.70;58.20;;;;;;5105285;28;20556;-73
2022/01/18 07:45:21;;;;;;;5.60;2.37;;;5.70;56.80;;;;;;5103719;28;20204;-73
2022/01/18 07:47:50;;;;;;;6.17;2.30;;;5.80;56.60;;;;;;5106561;28;20197;-73
2022/01/18 07:50:19;;;;;;;9.40;2.00;;;6.00;57.40;;;;;;5099171;28;20200;-73
2022/01/18 07:52:47;;;;;;;3.77;1.93;;;6.00;56.00;;;;;;5106479;28;20215;-73
2022/01/18 07:55:15;;;;;;;3.07;1.70;;;6.10;56.00;;;;;;5106737;28;20192;-72
2022/01/18 07:57:44;;;;;;;5.00;2.43;;;6.20;56.10;;;;;;5107079;28;20209;-74
2022/01/18 08:00:15;;;;;;;5.87;2.00;;;6.30;55.40;;;;;;5105747;28;20198;-74
2022/01/18 08:02:43;;;;;;;7.43;1.63;;;6.30;54.60;;;;;;5105026;28;20249;-74
2022/01/18 08:05:14;;;;;;;8.50;1.90;;;6.30;55.10;;;;;;5105578;28;20804;-74
2022/01/18 08:07:44;;;;;;;7.97;2.37;;;6.40;55.00;;;;;;5106614;28;20192;-74
2022/01/18 08:10:16;;;;;;;4.67;2.07;;;6.50;55.00;;;;;;5097898;28;20219;-74
2022/01/18 08:12:44;;;;;;;6.03;2.23;;;6.60;55.20;;;;;;5104623;28;20191;-73
2022/01/18 08:15:16;;;;;;;4.03;1.77;;;6.60;54.70;;;;;;5104948;28;20197;-73
2022/01/18 08:17:57;;;;;;;5.27;1.90;;;6.70;55.40;;;;;;5096935;28;20203;-73
2022/01/18 08:20:27;;;;;;;4.93;1.73;;;6.80;54.30;;;;;;5102913;28;20183;-72
2022/01/18 08:22:56;;;;;;;5.00;2.10;;;6.90;54.60;;;;;;5102119;28;20188;-73
2022/01/18 08:25:24;;;;;;;5.88;2.25;;;7.00;54.70;;;;;;5101117;28;21169;-73
2022/01/18 08:27:52;;;;;;;4.43;1.83;;;7.20;54.60;;;;;;5102336;28;20235;-73
2022/01/18 08:30:21;;;;;;;4.20;1.87;;;7.30;54.20;;;;;;5104692;28;20192;-73
2022/01/18 08:32:54;;;;;;;5.37;1.83;;;7.30;54.00;;;;;;5104957;28;20260;-75
2022/01/18 08:35:24;;;;;;;3.57;1.60;;;7.40;54.20;;;;;;5104065;28;20716;-73
2022/01/18 08:37:54;;;;;;;4.33;1.70;;;7.50;54.00;;;;;;5105298;28;20199;-72
2022/01/18 08:40:22;;;;;;;4.23;1.70;;;7.60;53.70;;;;;;5105448;28;20192;-73
2022/01/18 08:42:51;;;;;;;6.47;1.60;;;7.70;53.40;;;;;;5105610;28;20206;-74
2022/01/18 08:45:19;;;;;;;7.43;2.10;;;7.70;53.00;;;;;;5105336;28;20218;-73
2022/01/18 08:47:48;;;;;;;4.60;2.00;;;7.70;52.70;;;;;;5096733;28;20677;-73
2022/01/18 08:50:19;;;;;;;5.43;1.60;;;7.80;52.70;;;;;;5105100;28;20191;-74
2022/01/18 08:52:51;;;;;;;5.30;1.90;;;7.90;53.10;;;;;;5097104;28;20180;-74
2022/01/18 08:55:21;;;;;;;7.90;2.10;;;8.00;53.20;;;;;;5105007;28;20192;-72
2022/01/18 08:57:50;;;;;;;9.10;2.10;;;8.10;52.50;;;;;;5104817;28;20220;-74
2022/01/18 09:00:21;;;;;;;3.97;1.50;;;8.20;52.30;;;;;;5105260;28;20181;-74
2022/01/18 09:02:50;;;;;;;3.60;1.37;;;8.40;52.20;;;;;;5103949;28;20184;-74
2022/01/18 09:05:22;;;;;;;4.60;1.83;;;8.50;52.10;;;;;;5104766;28;20185;-74
2022/01/18 09:07:51;;;;;;;4.83;1.77;;;8.60;52.10;;;;;;5096984;28;20213;-74
2022/01/18 09:10:24;;;;;;;8.53;1.90;;;8.70;51.50;;;;;;5104803;28;20242;-73
2022/01/18 09:12:52;;;;;;;9.23;2.27;;;8.70;50.20;;;;;;5097095;28;20188;-75
2022/01/18 09:15:21;;;;;;;6.03;2.20;;;8.70;49.90;;;;;;5104625;28;20181;-74
2022/01/18 09:17:49;;;;;;;5.30;2.10;;;8.80;50.30;;;;;;5104456;28;20185;-73
2022/01/18 09:20:18;;;;;;;5.37;2.30;;;8.80;50.50;;;;;;5105068;28;20189;-74
2022/01/18 09:22:49;;;;;;;4.83;1.90;;;8.80;49.90;;;;;;5104476;28;20197;-74
2022/01/18 09:25:20;;;;;;;5.40;1.53;;;8.70;50.00;;;;;;5103747;28;20828;-73
2022/01/18 09:27:49;;;;;;;3.97;1.80;;;8.80;50.00;;;;;;5103880;28;20204;-74
2022/01/18 09:30:18;;;;;;;7.13;1.67;;;8.80;49.60;;;;;;5103995;28;20199;-73
2022/01/18 09:32:48;;;;;;;6.10;1.70;;;8.80;49.70;;;;;;5103420;28;20236;-74
2022/01/18 09:35:17;;;;;;;5.90;1.57;;;8.80;49.40;;;;;;5104312;28;20295;-72
2022/01/18 09:37:46;;;;;;;2.20;1.10;;;8.80;49.10;;;;;;5103916;28;20212;-72
2022/01/18 09:40:18;;;;;;;4.13;1.40;;;8.80;48.70;;;;;;5103811;28;20680;-74
2022/01/18 09:42:51;;;;;;;2.97;1.10;;;8.80;48.30;;;;;;5104522;28;20182;-74
2022/01/18 09:45:21;;;;;;;4.83;1.50;;;8.80;48.10;;;;;;5104767;28;20173;-73
2022/01/18 09:47:51;;;;;;;3.30;1.20;;;8.80;48.40;;;;;;5103796;28;20217;-74
2022/01/18 09:50:22;;;;;;;7.43;1.53;;;8.80;48.40;;;;;;5104445;28;20177;-73
2022/01/18 09:52:54;;;;;;;18.27;2.03;;;8.70;48.00;;;;;;5104182;28;20768;-74
2022/01/18 09:55:24;;;;;;;4.70;1.30;;;8.80;47.80;;;;;;5105309;28;20577;-73
2022/01/18 09:57:55;;;;;;;3.43;1.30;;;8.80;48.40;;;;;;5103691;28;20189;-74
2022/01/18 10:00:27;;;;;;;3.33;1.37;;;8.80;48.50;;;;;;5104324;28;20177;-73
2022/01/18 10:02:55;;;;;;;2.47;1.17;;;8.80;48.40;;;;;;5103812;28;20667;-73
2022/01/18 10:05:27;;;;;;;7.70;1.63;;;8.80;47.80;;;;;;5103745;28;20214;-72
2022/01/18 10:07:57;;;;;;;3.00;1.70;;;8.70;47.40;;;;;;5104340;28;20211;-74
2022/01/18 10:10:41;;;;;;;5.03;1.47;;;8.70;47.80;;;;;;5103495;28;20199;-75
2022/01/18 10:13:19;;;;;;;3.30;1.30;;;8.70;47.80;;;;;;5100957;28;20177;-74
2022/01/18 10:16:06;;;;;;;6.17;1.50;;;8.70;47.70;;;;;;5104195;28;20177;-73
2022/01/18 10:18:44;;;;;;;6.67;2.30;;;8.70;47.20;;;;;;5095812;28;20180;-73
2022/01/18 10:21:14;;;;;;;5.83;1.60;;;8.70;47.50;;;;;;5104440;28;20823;-77
2022/01/18 10:23:49;;;;;;;5.00;1.63;;;8.70;47.30;;;;;;5108241;28;20181;-73
2022/01/18 10:26:23;;;;;;;3.30;1.65;;;8.70;46.80;;;;;;5104477;28;20443;-75
2022/01/18 10:29:05;;;;;;;5.83;1.70;;;8.70;47.10;;;;;;5104751;28;20196;-74
2022/01/18 10:31:39;;;;;;;5.10;1.40;;;8.70;47.30;;;;;;5106733;28;20192;-73
2022/01/18 10:34:21;;;;;;;7.00;1.60;;;8.70;46.70;;;;;;5105747;28;20806;-75
2022/01/18 10:37:01;;;;;;;2.73;1.37;;;8.70;47.00;;;;;;5106405;28;20235;-74
2022/01/18 10:39:34;;;;;;;5.97;1.83;;;8.70;47.50;;;;;;5104146;28;20701;-74
2022/01/18 10:42:16;;;;;;;6.80;1.60;;;8.80;47.70;;;;;;5102417;28;20172;-76
2022/01/18 10:44:47;;;;;;;8.87;1.63;;;8.80;47.80;;;;;;5094349;28;20178;-75
2022/01/18 10:47:17;;;;;;;5.90;1.67;;;8.80;47.60;;;;;;5107362;28;20231;-75
2022/01/18 10:49:47;;;;;;;5.60;1.50;;;8.90;47.90;;;;;;5105117;28;20189;-74
2022/01/18 10:52:18;;;;;;;4.43;1.40;;;8.90;48.00;;;;;;5106033;28;20177;-74
2022/01/18 10:54:48;;;;;;;6.43;1.57;;;8.90;48.60;;;;;;5107128;28;20650;-74
2022/01/18 10:57:20;;;;;;;4.70;1.87;;;8.90;48.30;;;;;;5108187;28;20178;-75
2022/01/18 10:59:55;;;;;;;8.27;2.37;;;8.90;48.10;;;;;;5107084;28;20189;-74
2022/01/18 11:02:24;;;;;;;3.87;1.53;;;9.00;48.00;;;;;;5100101;28;20642;-75
2022/01/18 11:04:55;;;;;;;8.70;2.10;;;9.00;48.20;;;;;;5106112;28;20193;-76
2022/01/18 11:07:28;;;;;;;7.50;1.87;;;9.00;47.70;;;;;;5100202;28;20708;-73
2022/01/18 11:10:05;;;;;;;5.03;1.77;;;9.00;47.50;;;;;;5103466;28;20258;-74
2022/01/18 11:12:45;;;;;;;7.23;2.10;;;9.00;47.30;;;;;;5104609;28;21978;-73
2022/01/18 11:15:19;;;;;;;7.13;2.30;;;9.00;47.50;;;;;;5099437;28;20242;-74
2022/01/18 11:17:57;;;;;;;11.03;2.20;;;8.90;47.00;;;;;;5106837;28;20184;-75
2022/01/18 11:20:26;;;;;;;3.90;1.60;;;9.00;47.50;;;;;;5106265;28;20826;-75
2022/01/18 11:22:54;;;;;;;2.50;1.40;;;9.00;47.30;;;;;;5098533;28;20233;-76
2022/01/18 11:25:23;;;;;;;4.40;1.53;;;9.00;47.10;;;;;;5104812;28;20648;-75
2022/01/18 11:27:54;;;;;;;5.73;1.80;;;9.00;47.20;;;;;;5106628;28;20919;-74
2022/01/18 11:30:27;;;;;;;6.27;2.00;;;9.00;47.30;;;;;;5102385;28;20279;-75
2022/01/18 11:32:58;;;;;;;6.40;1.90;;;9.00;47.00;;;;;;5105605;28;20189;-75
2022/01/18 11:35:35;;;;;;;7.97;2.07;;;9.10;47.00;;;;;;5103455;28;20853;-76
2022/01/18 11:38:13;;;;;;;6.33;2.17;;;9.10;47.00;;;;;;5105228;28;20177;-75
2022/01/18 11:40:47;;;;;;;3.67;1.93;;;9.10;46.80;;;;;;5106603;28;20192;-75
2022/01/18 11:43:15;;;;;;;4.87;2.13;;;9.10;47.00;;;;;;5105722;28;20188;-76
2022/01/18 11:45:45;;;;;;;9.07;2.40;;;9.10;46.50;;;;;;5104856;28;20185;-76
2022/01/18 11:48:19;;;;;;;10.40;2.17;;;9.20;46.90;;;;;;5105759;28;20349;-76
2022/01/18 11:50:50;;;;;;;6.57;2.58;;;9.30;46.90;;;;;;5105123;28;20425;-76
2022/01/18 11:53:42;;;;;;;6.17;2.30;;;9.30;47.10;;;;;;5105742;28;20177;-75
2022/01/18 11:56:15;;;;;;;7.60;2.37;;;9.30;47.20;;;;;;5105579;28;20531;-76
2022/01/18 11:58:44;;;;;;;7.67;2.43;;;9.50;47.10;;;;;;5104959;28;20177;-76
2022/01/18 12:01:17;;;;;;;7.03;2.10;;;9.50;44.80;;;;;;5104664;28;20559;-77
2022/01/18 12:03:48;;;;;;;7.17;2.40;;;9.60;43.80;;;;;;5105636;28;20181;-77
2022/01/18 12:06:16;;;;;;;7.43;2.10;;;9.60;44.60;;;;;;5104800;28;20189;-77
2022/01/18 12:08:46;;;;;;;4.30;2.00;;;9.60;44.70;;;;;;5104173;28;20216;-76
2022/01/18 12:11:36;;;;;;;5.33;1.97;;;9.70;44.60;;;;;;5104757;28;20196;-74
2022/01/18 12:14:05;;;;;;;3.50;1.70;;;9.70;43.90;;;;;;5106560;28;20786;-73
2022/01/18 12:16:35;;;;;;;5.30;1.43;;;9.70;43.00;;;;;;5093528;28;20197;-73
2022/01/18 12:19:06;;;;;;;4.17;1.30;;;9.80;43.20;;;;;;5102692;28;20196;-74
2022/01/18 12:21:43;;;;;;;3.80;1.60;;;9.80;43.40;;;;;;5103675;28;20200;-73
2022/01/18 12:24:19;;;;;;;4.97;1.27;;;9.80;42.90;;;;;;5102985;28;20345;-73
2022/01/18 12:26:58;;;;;;;5.07;1.80;;;9.80;43.30;;;;;;5102495;28;20182;-73
2022/01/18 12:29:48;;;;;;;5.93;1.93;;;9.90;43.40;;;;;;5103675;28;20209;-73
2022/01/18 12:35:26;;;;;;;3.57;1.73;;;9.90;42.30;;;;;;5002987;28;20223;-75
2022/01/18 12:37:55;;;;;;;4.00;1.83;;;10.00;42.90;;;;;;5082860;28;20246;-73
2022/01/18 12:40:45;;;;;;;2.93;1.60;;;10.00;42.60;;;;;;5104023;28;20182;-73
2022/01/18 12:46:01;;;;;;;7.60;1.73;;;10.10;42.60;;;;;;5100334;28;20610;-74
2022/01/18 12:48:31;;;;;;;5.30;1.47;;;10.10;42.10;;;;;;5103506;28;20250;-74
2022/01/18 12:51:03;;;;;;;5.43;1.63;;;10.20;42.60;;;;;;5102862;28;20177;-74
2022/01/18 12:53:36;;;;;;;4.23;1.63;;;10.20;42.60;;;;;;5102034;28;20200;-73
2022/01/18 12:56:06;;;;;;;6.63;2.20;;;10.30;42.90;;;;;;5105251;28;20192;-74
2022/01/18 12:58:36;;;;;;;5.67;1.80;;;10.30;42.60;;;;;;5103183;28;20405;-72
2022/01/18 13:01:06;;;;;;;3.73;1.80;;;10.40;43.20;;;;;;5103076;28;20196;-74
2022/01/18 13:03:38;;;;;;;5.20;1.57;;;10.50;43.40;;;;;;5102624;28;20174;-74
2022/01/18 13:06:08;;;;;;;3.13;1.63;;;10.50;43.90;;;;;;5104107;28;20188;-72
2022/01/18 13:08:43;;;;;;;7.03;2.00;;;10.60;43.00;;;;;;5100690;28;20209;-73
2022/01/18 13:11:13;;;;;;;3.37;1.50;;;10.80;43.60;;;;;;5103928;28;20189;-75
2022/01/18 13:13:49;;;;;;;7.10;1.60;;;10.90;43.20;;;;;;5103952;28;20193;-74
2022/01/18 13:25:02;;;;;;;3.67;1.40;;;11.80;43.80;;;;;;5103339;28;20220;-75
2022/01/18 13:27:37;;;;;;;5.73;1.67;;;12.20;42.90;;;;;;5103771;28;20193;-72
2022/01/18 13:30:13;;;;;;;4.23;1.80;;;12.70;43.20;;;;;;5100130;28;20724;-74
2022/01/18 13:32:43;;;;;;;3.42;1.55;;;13.40;41.90;;;;;;5102037;28;20601;-74
2022/01/18 13:35:14;;;;;;;8.35;1.60;;;14.20;40.30;;;;;;5099513;28;20904;-73
2022/01/18 13:37:43;;;;;;;3.47;1.55;;;15.10;40.00;;;;;;5102403;28;20441;-74
2022/01/18 13:40:14;;;;;;;3.95;1.42;;;16.10;35.10;;;;;;5096284;28;20204;-74
2022/01/18 13:42:46;;;;;;;5.68;1.55;;;16.50;33.90;;;;;;5102319;28;20434;-73
2022/01/18 13:45:19;;;;;;;6.23;1.67;;;16.90;32.30;;;;;;5102449;28;20544;-71
2022/01/18 13:47:50;;;;;;;4.37;1.90;;;16.20;32.80;;;;;;5098317;28;20603;-74
2022/01/18 13:50:38;;;;;;;3.53;1.40;;;15.70;33.60;;;;;;5094547;28;20201;-72
2022/01/18 13:53:09;;;;;;;3.47;1.50;;;17.50;31.40;;;;;;5092102;28;20190;-74
2022/01/18 13:55:43;;;;;;;2.53;1.20;;;20.10;28.80;;;;;;5087070;28;20193;-72
2022/01/18 13:58:12;;;;;;;4.07;1.00;;;22.20;26.40;;;;;;5087548;28;20211;-75
2022/01/18 14:00:40;;;;;;;3.28;1.27;;;22.50;25.40;;;;;;5087600;28;20241;-73
2022/01/18 14:03:09;;;;;;;3.45;1.30;;;23.10;24.90;;;;;;5092257;28;20254;-74
2022/01/18 14:05:48;;;;;;;4.18;1.40;;;23.10;25.10;;;;;;5091654;28;20190;-74
2022/01/18 14:08:17;;;;;;;6.30;1.50;;;22.90;25.30;;;;;;5099293;28;20200;-74
2022/01/18 14:10:45;;;;;;;7.05;1.70;;;21.80;26.00;;;;;;5100766;28;20271;-74
2022/01/18 14:13:29;;;;;;;6.47;2.00;;;20.20;26.30;;;;;;5088261;28;20197;-73
2022/01/18 14:15:58;;;;;;;2.58;1.25;;;19.40;27.30;;;;;;5091567;28;20180;-72
2022/01/18 14:18:26;;;;;;;7.95;1.40;;;20.30;27.10;;;;;;5102632;28;21287;-73
2022/01/18 14:20:56;;;;;;;4.30;1.85;;;20.90;25.80;;;;;;5103570;28;20196;-74